logo
Search for airport 
image banner adimage banner adimage banner ad
image banner ad

EPPI - Pila

Located in , Poland

ICAO - EPPI, IATA -

Data provided by Airmate  

General information

Coordinates: N53°10'11" E16°42'38"
Elevation is 279 feet MSL.
Magnetic variation is 4.0000° East
View others Airports in Greater Poland

Operational data

Special qualification required
Current time UTC:
Current local time:
Weather at : EPMI - Miroslawiec ( 49 km )
TAF: TAF EPMI 211700Z 2118/2206 12006KT CAVOK TEMPO 2118/2123 VRB15G25KT 2000 TSRA BKN020CB PROB30 2202/2206 BKN005 BECMG 2203/2206 BKN010
View NOTAMs / SUP AIP / TFR affecting this airport [VIEW]
Communications frequencies: [VIEW]

Runways:

RWY identifierQFULength (ft)Width (ft)SurfaceLDA (ft)
0994°2133262GRASS2133
27274°2133262GRASS1312
0338°7874197CONC+ASPH7874
21218°7874197CONC+ASPH7874

Airport contact information

Address: Poland

Other aviation service providers

Aviation club (not for profit)

Aeroklub Ziemi Pilskiej

Aeroklub Ziemi Pilskiej
slawomir.palus@azp.pila.pl+48606765402
+48606765402

Satellite view of EPPI